Tiempo atmosférico en la estación meteorológica de VilagarcÍa de Arousa, Pontevedra (32 m.)



Fecha
DESCASC
Temp. máxima en grados centígrados (hora)
DESCASC
Temp. mínima en grados centígrados (hora)
DESCASC
Temp. media en grados centígrados
DESCASC
Racha de viento máxima en m/sg (hora)
DESCASC
Velocidad máxima media en intervalos de 10 minutos(hora)
DESCASC
Precipitaciones diarias en mm
DESCASC
Precipitaciones de 00:00 a 06:00 en mm
DESCASC
Precipitaciones de 06:00 a 12:00 en mm
DESCASC
Precipitaciones de 12:00 a 18:00 en mm
DESCASC
Precipitaciones de 18:00 a 24:00 en mm
DESCASC
22-04-2019 16.6 (00:00) 9.1 (08:20) 12.9 12.22 (21:20) 8.33 (21:20) 3.4 0 0 0.2 3.2
21-04-2019 26.9 (17:00) 13.5 (06:40) 20.2 6.67 (01:10) 2.5 (06:40) 0 0 0 0 0
20-04-2019 27.7 (16:40) 12.4 (07:10) 20.1 8.89 (19:20) 2.5 (11:10) 0 0 0 0 0
19-04-2019 23.5 (18:30) 12.5 (05:00) 18 8.33 (18:10) 1.94 (19:20) 0 0 0 0 0
18-04-2019 19.2 (19:10) 11 (00:00) 15.1 5.28 (01:40) 3.61 (01:40) 1 1 0 0 0
17-04-2019 15.9 (12:50) 10.6 (00:00) 13.3 8.61 (12:50) 4.17 (12:50) 8.4 0 0 6.2 2.2
16-04-2019 19 (16:50) 9.2 (00:00) 14.1 7.22 (14:40) 4.17 (14:50) 1.2 1.2 0 0 0
15-04-2019 16.4 (00:00) 11.3 (00:00) 13.8 10 (14:40) 5.83 (14:40) 11.4 2.6 5 3.8 0
14-04-2019 18.8 (15:00) 14.2 (00:00) 16.5 6.94 (18:10) 3.61 (14:40) 2 0.2 0 0.6 1.2
13-04-2019 16.2 (15:10) 10.3 (00:00) 13.3 5 (15:10) 2.78 (14:10) 1.8 0 0 0.4 1.4
12-04-2019 18.2 (17:30) 6.1 (00:00) 12.2 7.22 (14:50) 3.89 (14:00) 0 0 0 0 0
11-04-2019 20.2 (16:20) 5.1 (00:00) 12.7 8.33 (18:00) 5.83 (17:00) 0 0 0 0 0
10-04-2019 18.4 (18:50) 7.8 (00:00) 13.1 7.22 (18:30) 4.72 (18:20) 5.6 4.4 1.2 0 0
09-04-2019 14.1 (13:30) 8 (00:00) 11.1 12.78 (17:20) 8.06 (19:40) 24.4 11.6 0.8 6 6
08-04-2019 15 (14:30) 9 (00:00) 12 14.44 (21:40) 6.94 (21:10) 18.2 0.4 0 0 17.8
07-04-2019 12.8 (19:00) 4.8 (00:00) 8.8 9.17 (19:10) 4.17 (23:30) 56.2 0.6 0 17 38.6
06-04-2019 13.7 (16:00) 7.2 (00:00) 10.4 13.89 (07:40) 8.61 (08:40) 16.8 10.6 5 1 0.2
05-04-2019 12.9 (16:40) 4.9 (00:00) 8.9 12.78 (22:40) 6.39 (22:40) 16.4 1.8 1.4 8.8 4.4
04-04-2019 10.8 (11:20) 4.6 (00:00) 7.7 11.67 (17:30) 5.83 (17:10) 34.6 0 0.2 12.8 21.6
03-04-2019 15.5 (17:30) 6.4 (08:40) 11 8.61 (13:00) 3.89 (16:20) 0.6 0 0.2 0.4 0
02-04-2019 19.6 (16:40) 9.4 (00:00) 14.5 8.61 (18:10) 3.89 (17:00) 0 0 0 0 0
01-04-2019 20.7 (14:50) 9.3 (00:00) 15 8.61 (17:40) 4.72 (17:10) 0 0 0 0 0
31-03-2019 24.3 (15:40) 7.9 (00:00) 16.1 6.67 (16:40) 3.89 (16:40) 0 0 0 0 0
30-03-2019 19.9 (14:40) 6 (00:00) 12.9 6.94 (15:30) 4.17 (15:30) 0 0 0 0 0
29-03-2019 21.7 (13:50) 7.8 (00:00) 14.8 8.33 (16:10) 4.44 (16:10) 0 0 0 0 0
28-03-2019 23.9 (14:00) 7.4 (00:00) 15.6 6.39 (16:50) 4.17 (15:50) 0 0 0 0 0
27-03-2019 25.7 (16:10) 7.6 (00:00) 16.7 6.39 (17:20) 4.17 (17:00) 0 0 0 0 0
26-03-2019 24.7 (15:40) 8.9 (00:00) 16.8 6.94 (00:20) 2.22 (22:20) 0 0 0 0 0
25-03-2019 23.6 (15:30) 9.1 (00:00) 16.4 6.11 (18:20) 1.94 (18:50) 0 0 0 0 0

Gráficas

Temp. máximas Temp. mínimas Temp. medias Precipitaciones Rachas de viento máximas Velocidades máximas media en intervalos de 10 minutos

Datos horarios

Fecha y hora oficial Temperatura (ºC) Velocidad del viento (km/h) Dirección del viento Racha (km/h) Dirección de racha Precipitación (mm) Presión (hPa) Tendencia (hPa) Humedad (%)
2019-04-23 23:00:00 10.8 14 Oeste 28 Oeste 0 -- -- 74
2019-04-23 22:00:00 9.8 7 Sudeste 19 Oeste 0 -- -- 80
2019-04-23 21:00:00 11.4 8 Sudoeste 20 Sudoeste 0 -- -- 72
2019-04-23 20:00:00 11.8 8 Oeste 29 Oeste 0 -- -- 73
2019-04-23 19:00:00 13.8 17 Oeste 35 Oeste 0 -- -- 60
2019-04-23 18:00:00 14.3 17 Oeste 32 Oeste 0 -- -- 58
2019-04-23 17:00:00 14.6 15 Oeste 33 Noroeste 0 -- -- 57
2019-04-23 16:00:00 13.9 17 Oeste 35 Noroeste 0 -- -- 59
2019-04-23 15:00:00 13.6 16 Noroeste 35 Oeste 0 -- -- 66
2019-04-23 14:00:00 11.9 8 Sur 16 Sur 0 -- -- 85
2019-04-23 13:00:00 9 6 Sudeste 20 Sudeste 1.6 -- -- 98
2019-04-23 12:00:00 7.8 5 Este 11 Sudeste 0.6 -- -- 98
2019-04-23 11:00:00 7.3 3 Sudeste 30 Noroeste 3.4 -- -- 95
2019-04-23 10:00:00 8 19 Noroeste 36 Oeste 0.4 -- -- 88
2019-04-23 09:00:00 8.2 10 Oeste 27 Oeste 1.6 -- -- 93
2019-04-23 08:00:00 9 10 Oeste 25 Noroeste 0 -- -- 86
2019-04-23 07:00:00 8.8 4 Sudoeste 18 Sudoeste 0 -- -- 90
2019-04-23 06:00:00 8.8 4 Sur 15 Sur 0.2 -- -- 92
2019-04-23 05:00:00 8.9 8 Sudeste 16 Sur 0 -- -- 97
2019-04-23 04:00:00 8.8 8 Sur 27 Sur 1.6 -- -- 96
2019-04-23 03:00:00 8.9 11 Sur 26 Sur 1.6 -- -- 95
2019-04-23 02:00:00 9.2 7 Sudeste 28 Sur 1 -- -- 96
2019-04-23 01:00:00 9.8 7 Sur 17 Sudeste 3.2 -- -- 95
2019-04-23 00:00:00 10.1 8 Sur 19 Sudeste 1.8 -- -- 93
2019-04-22 23:00:00 10.9 3 Sudoeste 10 Sudoeste 0.6 -- -- 93
2019-04-22 22:00:00 11.3 5 Oeste 44 Noroeste 0.2 -- -- 90
2019-04-22 21:00:00 13 17 Sur 35 Sur 0 -- -- 87
2019-04-22 20:00:00 13.8 15 Sudoeste 32 Sur 0.2 -- -- 90
2019-04-22 19:00:00 13.9 11 Sur 29 Sudoeste 0.4 -- -- 91
2019-04-22 18:00:00 14.1 14 Sudoeste 32 Sudoeste 0.2 -- -- 88
2019-04-22 17:00:00 15.1 12 Sudoeste 24 Sudoeste 0 -- -- 82
2019-04-22 16:00:00 14.7 11 Sudoeste 25 Sudoeste 0 -- -- 81
2019-04-22 15:00:00 14.3 11 Sudoeste 30 Sudoeste 0 -- -- 83
2019-04-22 14:00:00 14.5 14 Sudoeste 28 Oeste 0 -- -- 80
2019-04-22 13:00:00 15.2 13 Sudoeste 29 Sudoeste 0 -- -- 80
2019-04-22 12:00:00 16.2 11 Oeste 21 Sudoeste 0 -- -- 78
2019-04-22 11:00:00 15.1 8 Oeste 14 Oeste 0 -- -- 75
2019-04-22 10:00:00 12.8 0 Calma 6 Noroeste 0 -- -- 80
2019-04-22 09:00:00 10.2 3 Sudeste 5 Sudeste 0 -- -- 89
2019-04-22 08:00:00 9.2 0 Calma 8 Sudeste 0 -- -- 90
2019-04-22 07:00:00 9.7 3 Sudeste 7 Sudeste 0 -- -- 86
2019-04-22 06:00:00 10.7 4 Sudeste 10 Sudeste 0 -- -- 84
2019-04-22 05:00:00 10.8 0 Calma 4 Sur 0 -- -- 84
2019-04-22 04:00:00 11.9 0 Calma 6 Sur 0 -- -- 79
2019-04-22 03:00:00 13.3 0 Calma 8 Sur 0 -- -- 75
2019-04-22 02:00:00 14.5 0 Calma 9 Noroeste 0 -- -- 71
2019-04-22 01:00:00 15.8 5 Norte 10 Norte 0 -- -- 69
2019-04-22 00:00:00 16.6 3 Noroeste 17 Este 0 -- -- 67
2019-04-21 23:00:00 17.7 3 Nordeste 17 Nordeste 0 -- -- 63
2019-04-21 22:00:00 18.8 3 Nordeste 15 Nordeste 0 -- -- 60
2019-04-21 21:00:00 21.3 4 Nordeste 18 Norte 0 -- -- 52
2019-04-21 20:00:00 22.9 5 Nordeste 19 Nordeste 0 -- -- 48
2019-04-21 19:00:00 24.6 5 Nordeste 22 Nordeste 0 -- -- 46
2019-04-21 18:00:00 26.3 5 Nordeste 21 Norte 0 -- -- 39
2019-04-21 17:00:00 26.9 5 Nordeste 24 Nordeste 0 -- -- 34
2019-04-21 16:00:00 26.2 4 Nordeste 21 Nordeste 0 -- -- 35
2019-04-21 15:00:00 25.6 4 Este 21 Norte 0 -- -- 34
2019-04-21 14:00:00 24.6 6 Nordeste 21 Nordeste 0 -- -- 39
2019-04-21 13:00:00 23.2 5 Nordeste 13 Sudeste 0 -- -- 41
2019-04-21 12:00:00 21.4 5 Nordeste 13 Nordeste 0 -- -- 44
2019-04-21 11:00:00 17.9 4 Noroeste 13 Noroeste 0 -- -- 52
2019-04-21 10:00:00 15.3 4 Norte 10 Noroeste 0 -- -- 56
2019-04-21 09:00:00 14.3 2 Noroeste 8 Noroeste 0 -- -- 56
2019-04-21 08:00:00 13.7 4 Noroeste 12 Noroeste 0 -- -- 56
2019-04-21 07:00:00 13.5 7 Noroeste 14 Noroeste 0 -- -- 59
2019-04-21 06:00:00 14.8 3 Norte 11 Sudeste 0 -- -- 53
2019-04-21 05:00:00 14.8 3 Este 17 Este 0 -- -- 53
2019-04-21 04:00:00 14.8 3 Nordeste 7 Nordeste 0 -- -- 55
2019-04-21 03:00:00 15.5 3 Sudoeste 10 Este 0 -- -- 55
2019-04-21 02:00:00 16.9 3 Nordeste 24 Nordeste 0 -- -- 51
2019-04-21 01:00:00 16.8 3 Nordeste 14 Norte 0 -- -- 56
2019-04-21 00:00:00 18 3 Este 17 Este 0 -- -- 55
2019-04-20 23:00:00 18.4 4 Este 32 Nordeste 0 -- -- 58
2019-04-20 22:00:00 19.8 4 Nordeste 22 Nordeste 0 -- -- 57
2019-04-20 21:00:00 22.4 4 Nordeste 30 Nordeste 0 -- -- 50
2019-04-20 20:00:00 24.3 7 Nordeste 32 Este 0 -- -- 34
2019-04-20 19:00:00 24.6 6 Nordeste 26 Este 0 -- -- 34
2019-04-20 18:00:00 26.2 6 Nordeste 23 Este 0 -- -- 33
2019-04-20 17:00:00 27.5 5 Nordeste 20 Este 0 -- -- 34
2019-04-20 16:00:00 27.4 5 Nordeste 16 Nordeste 0 -- -- 36
2019-04-20 15:00:00 26.2 6 Nordeste 27 Este 0 -- -- 39
2019-04-20 14:00:00 25.6 7 Nordeste 26 Este 0 -- -- 39
2019-04-20 13:00:00 23.2 6 Este 29 Sur 0 -- -- 48
2019-04-20 12:00:00 20.1 7 Norte 21 Noroeste 0 -- -- 51
2019-04-20 11:00:00 18.3 8 Norte 23 Noroeste 0 -- -- 52
2019-04-20 10:00:00 15.4 3 Nordeste 14 Este 0 -- -- 63
2019-04-20 09:00:00 14 4 Oeste 9 Nordeste 0 -- -- 65
2019-04-20 08:00:00 13.3 2 Este 15 Norte 0 -- -- 67
2019-04-20 07:00:00 12.6 2 Este 8 Oeste 0 -- -- 75
2019-04-20 06:00:00 14.8 3 Noroeste 7 Oeste 0 -- -- 63
2019-04-20 05:00:00 15.6 4 Oeste 10 Noroeste 0 -- -- 60
2019-04-20 04:00:00 15.8 2 Sudoeste 13 Noroeste 0 -- -- 62
2019-04-20 03:00:00 15.9 2 Oeste 10 Norte 0 -- -- 68
2019-04-20 02:00:00 16 3 Nordeste 12 Sudeste 0 -- -- 75
2019-04-20 01:00:00 15.9 2 Norte 12 Norte 0 -- -- 77
2019-04-20 00:00:00 16.7 3 Este 14 Este 0 -- -- 73
2019-04-19 23:00:00 17.5 4 Noroeste 13 Noroeste 0 -- -- 67
2019-04-19 22:00:00 17.8 2 Este 10 Sudeste 0 -- -- 67
2019-04-19 21:00:00 19.2 2 Este 20 Nordeste 0 -- -- 67
2019-04-19 20:00:00 21.2 5 Nordeste 24 Nordeste 0 -- -- 59
2019-04-19 19:00:00 22.6 5 Nordeste 30 Nordeste 0 -- -- 57
2019-04-19 18:00:00 22.9 5 Este 24 Nordeste 0 -- -- 55
2019-04-19 17:00:00 22.4 4 Nordeste 14 Norte 0 -- -- 55
2019-04-19 16:00:00 22.5 5 Nordeste 26 Norte 0 -- -- 56
2019-04-19 15:00:00 20.9 3 Nordeste 15 Norte 0 -- -- 62
2019-04-19 14:00:00 20.1 3 Nordeste 20 Este 0 -- -- 63
2019-04-19 13:00:00 19.3 4 Nordeste 23 Este 0 -- -- 64
2019-04-19 12:00:00 18.3 5 Nordeste 17 Sudeste 0 -- -- 68
2019-04-19 11:00:00 16.6 5 Nordeste 21 Norte 0 -- -- 73
2019-04-19 10:00:00 14.6 6 Nordeste 21 Norte 0 -- -- 82
2019-04-19 09:00:00 13.9 4 Este 20 Este 0 -- -- 86
2019-04-19 08:00:00 13.6 4 Este 19 Este 0 -- -- 85
2019-04-19 07:00:00 13 3 Nordeste 12 Nordeste 0 -- -- 88
2019-04-19 06:00:00 12.7 3 Este 7 Este 0 -- -- 86
2019-04-19 05:00:00 12.5 2 Este 9 Este 0 -- -- 85
2019-04-19 04:00:00 12.9 2 Este 10 Nordeste 0 -- -- 83
2019-04-19 03:00:00 13 0 Calma 8 Nordeste 0 -- -- 84
2019-04-19 02:00:00 13 2 Este 15 Este 0 -- -- 85
2019-04-19 01:00:00 14 3 Noroeste 11 Noroeste 0 -- -- 83
2019-04-19 00:00:00 14.7 4 Noroeste 12 Noroeste 0 -- -- 79
2019-04-18 23:00:00 14.9 5 Noroeste 9 Noroeste 0 -- -- 76
2019-04-18 22:00:00 15.5 3 Norte 12 Norte 0 -- -- 72
2019-04-18 21:00:00 16.7 4 Nordeste 15 Norte 0 -- -- 69
2019-04-18 20:00:00 17.8 2 Nordeste 16 Noroeste 0 -- -- 71
2019-04-18 19:00:00 19 8 Noroeste 17 Noroeste 0 -- -- 65
2019-04-18 18:00:00 18.2 8 Noroeste 19 Noroeste 0 -- -- 67
2019-04-18 17:00:00 16.6 12 Oeste 18 Noroeste 0 -- -- 76
2019-04-18 16:00:00 17.5 5 Sudoeste 17 Noroeste 0 -- -- 63
2019-04-18 15:00:00 18 11 Noroeste 19 Noroeste 0 -- -- 64
2019-04-18 14:00:00 17 9 Noroeste 14 Norte 0 -- -- 68
2019-04-18 13:00:00 15.5 9 Noroeste 15 Noroeste 0 -- -- 75
2019-04-18 12:00:00 17 8 Sudeste 17 Sudeste 0 -- -- 72
2019-04-18 11:00:00 15.4 8 Sudeste 16 Sudeste 0 -- -- 77
2019-04-18 10:00:00 12.5 6 Sudeste 13 Sudeste 0 -- -- 92
2019-04-18 09:00:00 11.4 6 Este 14 Sudeste 0 -- -- 97
2019-04-18 08:00:00 11.6 8 Sudeste 17 Sudeste 0 -- -- 93
2019-04-18 07:00:00 11 0 Calma 8 Sudeste 0 -- -- 98
2019-04-18 06:00:00 11.3 4 Sur 15 Sudeste 0.2 -- -- 97
2019-04-18 05:00:00 11.2 5 Este 13 Sudeste 0 -- -- 99
2019-04-18 04:00:00 11.9 2 Sudeste 14 Sudeste 0.8 -- -- 98
2019-04-18 03:00:00 12.2 10 Sudeste 19 Este 0 -- -- 97
2019-04-18 02:00:00 12.1 12 Sudeste 19 Sudeste 0 -- -- 98
2019-04-18 01:00:00 12.1 10 Sudeste 17 Sudeste 0 -- -- 99
2019-04-18 00:00:00 12.3 8 Sudeste 13 Sudeste 0 -- -- 100
2019-04-17 23:00:00 12.5 5 Sudeste 18 Sur 1 -- -- 99
2019-04-17 22:00:00 12.8 6 Sudeste 14 Sudeste 0.2 -- -- 98
2019-04-17 21:00:00 13.3 6 Sudeste 13 Sudeste 0 -- -- 98
2019-04-17 20:00:00 13.4 6 Sudeste 14 Sudeste 0.2 -- -- 97
2019-04-17 19:00:00 13.4 6 Sudeste 15 Sur 0.8 -- -- 96
2019-04-17 18:00:00 13.5 7 Sur 17 Sur 1.6 -- -- 95
2019-04-17 17:00:00 13.4 9 Sur 18 Sur 2.4 -- -- 95
2019-04-17 16:00:00 13.6 6 Sudoeste 16 Sudeste 1.2 -- -- 96
2019-04-17 15:00:00 13.2 11 Sudoeste 21 Sudoeste 0.8 -- -- 93
2019-04-17 14:00:00 14.9 8 Sur 22 Sur 0.2 -- -- 80
2019-04-17 13:00:00 15.8 10 Sur 31 Sur 0 -- -- 66
2019-04-17 12:00:00 15.1 10 Sudeste 18 Sudeste 0 -- -- 71
2019-04-17 11:00:00 13.9 7 Sudeste 18 Sudeste 0 -- -- 78
2019-04-17 10:00:00 14 6 Sur 19 Sudeste 0 -- -- 73
2019-04-17 09:00:00 12.8 8 Sudeste 13 Sudoeste 0 -- -- 77
2019-04-17 08:00:00 12.9 7 Sur 16 Sur 0 -- -- 73
2019-04-17 07:00:00 12.6 4 Sur 17 Sudeste 0 -- -- 75
2019-04-17 06:00:00 12.2 8 Sudeste 18 Sudeste 0 -- -- 80
2019-04-17 05:00:00 11.3 0 Calma 19 Sudeste 0 -- -- 86
2019-04-17 04:00:00 10.6 3 Sudeste 5 Este 0 -- -- 90
2019-04-17 03:00:00 11 2 Este 8 Sudeste 0 -- -- 84
2019-04-17 02:00:00 11 0 Calma 5 Sudeste 0 -- -- 86
2019-04-17 01:00:00 11.2 2 Este 4 Este 0 -- -- 88
2019-04-17 00:00:00 11.9 2 Sudeste 5 Sudeste 0 -- -- 80
2019-04-16 23:00:00 12.5 2 Sur 7 Sudoeste 0 -- -- 82
2019-04-16 22:00:00 13.9 2 Sur 5 Sudoeste 0 -- -- 79
2019-04-16 21:00:00 14.9 0 Calma 12 Noroeste 0 -- -- 70
2019-04-16 20:00:00 16.1 3 Noroeste 17 Sudoeste 0 -- -- 65
2019-04-16 19:00:00 17.6 8 Oeste 22 Oeste 0 -- -- 59
2019-04-16 18:00:00 17.3 12 Oeste 23 Oeste 0 -- -- 62
2019-04-16 17:00:00 18.8 12 Oeste 22 Oeste 0 -- -- 56
2019-04-16 16:00:00 17.7 9 Oeste 23 Sudoeste 0 -- -- 58
2019-04-16 15:00:00 16.9 15 Oeste 26 Sudoeste 0 -- -- 64
2019-04-16 14:00:00 17.1 12 Oeste 22 Sudoeste 0 -- -- 58
2019-04-16 13:00:00 16.8 7 Sur 21 Sudoeste 0 -- -- 62
2019-04-16 12:00:00 15.5 9 Sur 21 Sudoeste 0 -- -- 67
2019-04-16 11:00:00 14.1 2 Este 12 Sudeste 0 -- -- 79
2019-04-16 10:00:00 12.3 3 Este 12 Sudeste 0 -- -- 88
2019-04-16 09:00:00 10.5 11 Sudeste 17 Sudeste 0 -- -- 89
2019-04-16 08:00:00 10.1 12 Sudeste 21 Sudeste 0 -- -- 91
2019-04-16 07:00:00 9.3 11 Sudeste 18 Sudeste 0 -- -- 97
2019-04-16 06:00:00 9.3 5 Sudeste 9 Sudeste 0 -- -- 99
2019-04-16 05:00:00 9.6 4 Sudeste 11 Sudeste 0 -- -- 98
2019-04-16 04:00:00 10.3 4 Sudeste 10 Sur 0 -- -- 97
2019-04-16 03:00:00 10.7 8 Sudeste 12 Sudeste 0 -- -- 98
2019-04-16 02:00:00 11.5 3 Noroeste 7 Sudeste 1 -- -- 96
2019-04-16 01:00:00 11.8 4 Sudeste 10 Sudeste 0.2 -- -- 92
2019-04-16 00:00:00 11.6 6 Sudeste 11 Sudeste 0 -- -- 90
2019-04-15 23:00:00 11.5 3 Sudeste 9 Sur 0 -- -- 90
2019-04-15 22:00:00 12.6 4 Sudeste 14 Sudoeste 0 -- -- 84
2019-04-15 21:00:00 13.8 7 Oeste 22 Sudoeste 0 -- -- 79
2019-04-15 20:00:00 15 12 Oeste 22 Sudoeste 0 -- -- 74
2019-04-15 19:00:00 14.5 12 Oeste 27 Oeste 0 -- -- 78
2019-04-15 18:00:00 15.6 12 Oeste 28 Oeste 0 -- -- 69
2019-04-15 17:00:00 15.4 15 Oeste 29 Noroeste 0 -- -- 74
2019-04-15 16:00:00 14.9 19 Noroeste 33 Noroeste 0 -- -- 73
2019-04-15 15:00:00 14.5 17 Oeste 36 Noroeste 0 -- -- 81
2019-04-15 14:00:00 14.4 18 Oeste 32 Oeste 0 -- -- 85
2019-04-15 13:00:00 13.8 12 Sudoeste 22 Sudoeste 3.8 -- -- 97
2019-04-15 12:00:00 13.2 12 Sudoeste 30 Sudoeste 1.4 -- -- 98
2019-04-15 11:00:00 13.1 13 Sudoeste 32 Oeste 2 -- -- 98
2019-04-15 10:00:00 13.5 12 Sudoeste 31 Sudoeste 0 -- -- 93
2019-04-15 09:00:00 14.7 15 Sudoeste 35 Sudoeste 1 -- -- 96
2019-04-15 08:00:00 15.2 14 Sur 35 Sur 0.4 -- -- 93
2019-04-15 07:00:00 15.1 14 Sur 28 Sur 0.2 -- -- 94
2019-04-15 06:00:00 15.3 13 Sudoeste 28 Sudoeste 0.4 -- -- 94
2019-04-15 05:00:00 15.1 10 Sur 26 Sur 1.4 -- -- 97
2019-04-15 04:00:00 15.9 5 Sudoeste 13 Sudoeste 0.8 -- -- 97
2019-04-15 03:00:00 16.1 5 Sur 12 Sur 0 -- -- 96
2019-04-15 02:00:00 16.1 5 Sudoeste 12 Sudoeste 0 -- -- 96
2019-04-15 01:00:00 16.3 2 Sudeste 12 Sur 0 -- -- 97
2019-04-15 00:00:00 16.4 3 Sudoeste 6 Sudoeste 0 -- -- 97
2019-04-14 23:00:00 16.4 4 Sur 16 Sudeste 0.4 -- -- 97
2019-04-14 22:00:00 16.6 6 Sur 16 Sur 0 -- -- 96
2019-04-14 21:00:00 16.6 8 Sur 17 Sur 0 -- -- 96
2019-04-14 20:00:00 16.6 9 Sur 21 Sudoeste 0 -- -- 98
2019-04-14 19:00:00 16.5 10 Sur 25 Sur 0.8 -- -- 99
2019-04-14 18:00:00 16.7 11 Sudoeste 23 Sur 0.6 -- -- 98
2019-04-14 17:00:00 17 11 Sudoeste 24 Sudoeste 0 -- -- 95
2019-04-14 16:00:00 17.9 9 Sudoeste 23 Sudoeste 0 -- -- 92
2019-04-14 15:00:00 18.8 10 Oeste 23 Sudoeste 0 -- -- 87
2019-04-14 14:00:00 17.9 10 Sudoeste 17 Sudoeste 0 -- -- 91
2019-04-14 13:00:00 16.3 5 Noroeste 8 Noroeste 0 -- -- 95
2019-04-14 12:00:00 15.9 4 Noroeste 8 Oeste 0 -- -- 98
2019-04-14 11:00:00 15.4 0 Calma 10 Noroeste 0 -- -- 100
2019-04-14 10:00:00 14.9 3 Este 6 Noroeste 0 -- -- 100
2019-04-14 09:00:00 14.5 0 Calma 2 Sudeste 0 -- -- 100
2019-04-14 08:00:00 14.4 0 Calma 3 Noroeste 0 -- -- 100
2019-04-14 07:00:00 14.3 0 Calma 4 Este 0 -- -- 100
2019-04-14 06:00:00 14.3 0 Calma 3 Sudeste 0 -- -- 100
2019-04-14 05:00:00 14.3 0 Calma 4 Nordeste 0.2 -- -- 100
2019-04-14 04:00:00 14.3 0 Calma 4 Oeste 0 -- -- 100
2019-04-14 03:00:00 14.3 0 Calma 4 Oeste 0 -- -- 99
2019-04-14 02:00:00 14.3 0 Calma 5 Sudeste 0 -- -- 99
2019-04-14 01:00:00 14.4 3 Este 13 Sur 0 -- -- 99
2019-04-14 00:00:00 14.2 0 Calma 4 Sudeste 0 -- -- 99
2019-04-13 23:00:00 14.3 0 Calma 8 Sur 0 -- -- 99
2019-04-13 22:00:00 14.4 0 Calma 5 Sudoeste 0 -- -- 99
2019-04-13 21:00:00 14.2 0 Calma 2 Este 0 -- -- 99
2019-04-13 20:00:00 14.1 0 Calma 4 Noroeste 0.4 -- -- 99
2019-04-13 19:00:00 13.8 2 Noroeste 8 Oeste 1 -- -- 98
2019-04-13 18:00:00 14.1 0 Calma 6 Noroeste 0 -- -- 97
2019-04-13 17:00:00 14.4 2 Este 5 Sudoeste 0.2 -- -- 94
2019-04-13 16:00:00 15 0 Calma 18 Sur 0.2 -- -- 86
2019-04-13 15:00:00 16.1 6 Sur 16 Oeste 0 -- -- 70
2019-04-13 14:00:00 15.8 10 Noroeste 14 Noroeste 0 -- -- 67
2019-04-13 13:00:00 15.2 6 Noroeste 9 Noroeste 0 -- -- 65
2019-04-13 12:00:00 15.1 6 Noroeste 8 Noroeste 0 -- -- 73
2019-04-13 11:00:00 14.8 0 Calma 10 Sudeste 0 -- -- 76
2019-04-13 10:00:00 13.2 3 Este 8 Sudeste 0 -- -- 79
2019-04-13 09:00:00 11.3 0 Calma 8 Sudeste 0 -- -- 86
2019-04-13 08:00:00 10.7 4 Este 6 Este 0 -- -- 91
2019-04-13 07:00:00 10.5 2 Este 3 Este 0 -- -- 96
2019-04-13 06:00:00 10.5 0 Calma 4 Sudeste 0 -- -- 95
2019-04-13 05:00:00 10.5 2 Sudeste 4 Sudeste 0 -- -- 96
2019-04-13 04:00:00 10.7 3 Sudeste 6 Este 0 -- -- 96
2019-04-13 03:00:00 10.7 3 Sudeste 4 Sur 0 -- -- 95
2019-04-13 02:00:00 10.5 2 Este 5 Sur 0 -- -- 94
2019-04-13 01:00:00 10.7 3 Sudeste 4 Sudeste 0 -- -- 91
2019-04-13 00:00:00 11.7 0 Calma 4 Sur 0 -- -- 90
2019-04-12 23:00:00 12.4 0 Calma 5 Sudeste 0 -- -- 88
2019-04-12 22:00:00 13.2 2 Este 12 Oeste 0 -- -- 85
2019-04-12 21:00:00 14.2 7 Oeste 15 Sudoeste 0 -- -- 80
2019-04-12 20:00:00 15.5 10 Oeste 18 Oeste 0 -- -- 72
2019-04-12 19:00:00 17 7 Oeste 15 Sudoeste 0 -- -- 61
2019-04-12 18:00:00 17.7 10 Oeste 18 Noroeste 0 -- -- 59
2019-04-12 17:00:00 17.4 10 Oeste 19 Oeste 0 -- -- 57
2019-04-12 16:00:00 17.1 9 Oeste 22 Noroeste 0 -- -- 63
2019-04-12 15:00:00 16.1 14 Oeste 26 Oeste 0 -- -- 72
2019-04-12 14:00:00 16.3 14 Noroeste 22 Noroeste 0 -- -- 68
2019-04-12 13:00:00 15.2 11 Noroeste 17 Noroeste 0 -- -- 67
2019-04-12 12:00:00 13.8 5 Noroeste 9 Noroeste 0 -- -- 70
2019-04-12 11:00:00 12.6 3 Este 7 Sudeste 0 -- -- 74
2019-04-12 10:00:00 9.1 3 Este 5 Este 0 -- -- 86
2019-04-12 09:00:00 6.9 3 Este 10 Este 0 -- -- 95
2019-04-12 08:00:00 6.5 4 Sudeste 14 Sudeste 0 -- -- 95
2019-04-12 07:00:00 6.4 5 Este 11 Sudeste 0 -- -- 96
2019-04-12 06:00:00 6.9 4 Este 7 Este 0 -- -- 95
2019-04-12 05:00:00 7.8 0 Calma 13 Sudeste 0 -- -- 92
2019-04-12 04:00:00 8.3 5 Sudeste 13 Sudeste 0 -- -- 90
2019-04-12 03:00:00 9.6 3 Sudoeste 5 Sudoeste 0 -- -- 86
2019-04-12 02:00:00 10.8 4 Oeste 6 Oeste 0 -- -- 80
2019-04-12 01:00:00 10.7 3 Sudoeste 4 Sudoeste 0 -- -- 80
2019-04-12 00:00:00 11.6 0 Calma 6 Noroeste 0 -- -- 76
2019-04-11 23:00:00 13.1 0 Calma 8 Nordeste 0 -- -- 71
2019-04-11 22:00:00 14.6 5 Norte 10 Noroeste 0 -- -- 65
2019-04-11 21:00:00 15.9 0 Calma 13 Oeste 0 -- -- 64
2019-04-11 20:00:00 17.1 9 Oeste 21 Oeste 0 -- -- 63
2019-04-11 19:00:00 17.9 10 Oeste 30 Noroeste 0 -- -- 59
2019-04-11 18:00:00 17 20 Noroeste 30 Oeste 0 -- -- 61
2019-04-11 17:00:00 17.3 21 Noroeste 27 Oeste 0 -- -- 63
2019-04-11 16:00:00 19.7 3 Norte 18 Noroeste 0 -- -- 40
2019-04-11 15:00:00 18.5 6 Norte 16 Noroeste 0 -- -- 48
2019-04-11 14:00:00 17.1 3 Nordeste 19 Noroeste 0 -- -- 57
2019-04-11 13:00:00 14.9 5 Norte 13 Noroeste 0 -- -- 71
2019-04-11 12:00:00 11.4 4 Norte 11 Noroeste 0 -- -- 85
2019-04-11 11:00:00 8.4 3 Noroeste 6 Noroeste 0 -- -- 100
2019-04-11 10:00:00 6.7 0 Calma 3 Noroeste 0 -- -- 100
2019-04-11 09:00:00 5.8 0 Calma 6 Sudeste 0 -- -- 100
2019-04-11 08:00:00 5.2 2 Este 9 Sudeste 0 -- -- 99
2019-04-11 07:00:00 5.5 0 Calma 3 Sudeste 0 -- -- 99
2019-04-11 06:00:00 6 2 Sudeste 4 Sudeste 0 -- -- 98
2019-04-11 05:00:00 6.5 2 Sudeste 3 Sudeste 0 -- -- 97
2019-04-11 04:00:00 7.6 0 Calma 6 Noroeste 0 -- -- 96
2019-04-11 03:00:00 8.4 0 Calma 4 Noroeste 0 -- -- 94
2019-04-11 02:00:00 9 0 Calma 7 Sudeste 0 -- -- 92
2019-04-11 01:00:00 9.2 2 Sudeste 5 Este 0 -- -- 89
2019-04-11 00:00:00 10.8 2 Sur 7 Noroeste 0 -- -- 83
2019-04-10 23:00:00 11.7 3 Este 10 Este 0 -- -- 80
2019-04-10 22:00:00 12.8 2 Norte 8 Nordeste 0 -- -- 74
2019-04-10 21:00:00 14.8 2 Norte 9 Norte 0 -- -- 68
2019-04-10 20:00:00 16.6 5 Norte 22 Noroeste 0 -- -- 62
2019-04-10 19:00:00 17.9 8 Norte 26 Noroeste 0 -- -- 57
2019-04-10 18:00:00 17.1 11 Noroeste 22 Noroeste 0 -- -- 65
2019-04-10 17:00:00 15.7 13 Oeste 22 Noroeste 0 -- -- 70
2019-04-10 16:00:00 16.2 10 Noroeste 20 Noroeste 0 -- -- 67
2019-04-10 15:00:00 15 7 Oeste 17 Oeste 0 -- -- 73
2019-04-10 14:00:00 14.1 6 Noroeste 13 Oeste 0 -- -- 75
2019-04-10 13:00:00 13.8 8 Noroeste 13 Noroeste 0 -- -- 79
2019-04-10 12:00:00 12.7 6 Noroeste 14 Oeste 0 -- -- 83
2019-04-10 11:00:00 11 3 Oeste 6 Sudoeste 0 -- -- 96
2019-04-10 10:00:00 9.6 2 Sudeste 6 Sur 0 -- -- 100
2019-04-10 09:00:00 7.8 2 Sudeste 5 Sur 0 -- -- 99
2019-04-10 08:00:00 8.3 3 Sudeste 6 Noroeste 0 -- -- 97
2019-04-10 07:00:00 9.6 4 Noroeste 12 Noroeste 1.2 -- -- 96
2019-04-10 06:00:00 10.4 6 Oeste 17 Oeste 0.2 -- -- 93
2019-04-10 05:00:00 10.4 2 Sudoeste 5 Norte 0 -- -- 98
2019-04-10 04:00:00 10.3 2 Sudeste 15 Noroeste 0.6 -- -- 99
2019-04-10 03:00:00 10.1 3 Este 10 Sudeste 0.6 -- -- 99
2019-04-10 02:00:00 9.9 0 Calma 9 Sudeste 0.2 -- -- 97
2019-04-10 01:00:00 10.2 3 Oeste 13 Noroeste 2.8 -- -- 97
2019-04-10 00:00:00 10.1 0 Calma 30 Noroeste 4.6 -- -- 95
2019-04-09 23:00:00 11.7 20 Noroeste 35 Oeste 0.6 -- -- 88
2019-04-09 22:00:00 12.2 22 Noroeste 39 Noroeste 0 -- -- 83
2019-04-09 21:00:00 11.8 22 Oeste 37 Oeste 0 -- -- 88
2019-04-09 20:00:00 11.3 24 Noroeste 45 Noroeste 0.8 -- -- 87
2019-04-09 19:00:00 11.9 20 Oeste 42 Noroeste 0 -- -- 87
2019-04-09 18:00:00 11.6 22 Noroeste 46 Oeste 2 -- -- 89
2019-04-09 17:00:00 13.4 22 Noroeste 45 Oeste 0.2 -- -- 79
2019-04-09 16:00:00 12.6 20 Oeste 35 Sudoeste 0.8 -- -- 89
2019-04-09 15:00:00 12.4 13 Oeste 36 Oeste 0.8 -- -- 91
2019-04-09 14:00:00 13.1 17 Oeste 40 Noroeste 1.8 -- -- 82
2019-04-09 13:00:00 13.2 17 Oeste 34 Noroeste 0.4 -- -- 78
2019-04-09 12:00:00 12.5 10 Oeste 24 Oeste 0 -- -- 77
2019-04-09 11:00:00 12.2 13 Oeste 25 Sudoeste 0 -- -- 83
2019-04-09 10:00:00 10.4 5 Oeste 15 Sudoeste 0 -- -- 90
2019-04-09 09:00:00 9.6 7 Sudoeste 22 Oeste 0.8 -- -- 89
2019-04-09 08:00:00 8 4 Sur 10 Oeste 0 -- -- 94
2019-04-09 07:00:00 9.3 8 Oeste 20 Noroeste 0 -- -- 88
2019-04-09 06:00:00 9.4 11 Noroeste 44 Noroeste 0.4 -- -- 91
2019-04-09 05:00:00 9.9 8 Oeste 29 Oeste 4 -- -- 95
2019-04-09 04:00:00 10.7 8 Sudoeste 22 Sudoeste 0 -- -- 95
2019-04-09 03:00:00 10.3 6 Sur 24 Sur 1.2 -- -- 94
2019-04-09 02:00:00 10.5 13 Sur 28 Sudoeste 0 -- -- 93
2019-04-09 01:00:00 11.1 13 Sudoeste 37 Noroeste 6 -- -- 93
2019-04-09 00:00:00 11.6 13 Sudoeste 30 Sudoeste 0 -- -- 88
2019-04-08 23:00:00 11 8 Sudoeste 33 Oeste 1.2 -- -- 94
2019-04-08 22:00:00 9.2 9 Sur 52 Sudoeste 15.6 -- -- 95
2019-04-08 21:00:00 12.2 17 Sudoeste 35 Sudoeste 1 -- -- 88
2019-04-08 20:00:00 13.3 18 Sudoeste 40 Sudoeste 0 -- -- 81
2019-04-08 19:00:00 15 20 Sudoeste 42 Sudoeste 0 -- -- 69
2019-04-08 18:00:00 14.4 17 Sudoeste 50 Sudoeste 0 -- -- 75
2019-04-08 17:00:00 14.1 19 Sudoeste 40 Sudoeste 0 -- -- 70
2019-04-08 16:00:00 14.6 21 Sudoeste 45 Sudoeste 0 -- -- 66
2019-04-08 15:00:00 14.2 21 Sudoeste 39 Sudoeste 0 -- -- 70
2019-04-08 14:00:00 14.5 12 Sudoeste 37 Sudoeste 0 -- -- 72
2019-04-08 13:00:00 13.9 19 Sudoeste 37 Sudoeste 0 -- -- 67
2019-04-08 12:00:00 13.8 18 Oeste 33 Sudoeste 0 -- -- 69
2019-04-08 11:00:00 13.1 14 Sudoeste 25 Sudoeste 0 -- -- 71
2019-04-08 10:00:00 11.3 6 Sudoeste 12 Sur 0 -- -- 85
2019-04-08 09:00:00 9.3 4 Sur 9 Sur 0 -- -- 93
2019-04-08 08:00:00 9.5 3 Sur 22 Oeste 0 -- -- 87
2019-04-08 07:00:00 11 9 Oeste 19 Sudoeste 0 -- -- 85
2019-04-08 06:00:00 11.1 6 Oeste 14 Oeste 0 -- -- 88
2019-04-08 05:00:00 10.8 6 Oeste 16 Sudoeste 0 -- -- 90
2019-04-08 04:00:00 11.2 6 Oeste 16 Sudoeste 0 -- -- 92
2019-04-08 03:00:00 11.1 6 Oeste 21 Noroeste 0 -- -- 93
2019-04-08 02:00:00 11.8 10 Oeste 24 Oeste 0 -- -- 94
2019-04-08 01:00:00 12.1 9 Oeste 24 Oeste 0.4 -- -- 97
2019-04-08 00:00:00 11.7 8 Oeste 28 Oeste 0 -- -- 95
2019-04-07 23:00:00 12.5 14 Oeste 28 Oeste 3.8 -- -- 100
2019-04-07 22:00:00 12 4 Norte 18 Oeste 23.6 -- -- 100
2019-04-07 21:00:00 12.5 9 Oeste 21 Sudoeste 4 -- -- 100
2019-04-07 20:00:00 12.6 9 Oeste 33 Sudoeste 2 -- -- 99
2019-04-07 19:00:00 12.8 13 Sudoeste 29 Oeste 5.2 -- -- 100
2019-04-07 18:00:00 10.5 10 Noroeste 25 Oeste 8.8 -- -- 99
2019-04-07 17:00:00 10.7 0 Calma 8 Sudeste 5.2 -- -- 97
2019-04-07 16:00:00 10.8 6 Este 17 Sudeste 1.4 -- -- 95
2019-04-07 15:00:00 11.1 9 Sudeste 22 Este 0.8 -- -- 94
2019-04-07 14:00:00 11.1 11 Sudeste 32 Sur 0.8 -- -- 86
2019-04-07 13:00:00 12 9 Sur 22 Sur 0 -- -- 79
2019-04-07 12:00:00 11.6 8 Sudeste 19 Sur 0 -- -- 82
2019-04-07 11:00:00 9.9 9 Sudeste 17 Sudeste 0 -- -- 89
2019-04-07 10:00:00 8.4 3 Este 10 Sudeste 0 -- -- 96
2019-04-07 09:00:00 7 2 Este 8 Este 0 -- -- 98
2019-04-07 08:00:00 6.1 4 Este 7 Este 0 -- -- 100
2019-04-07 07:00:00 5.5 3 Este 9 Este 0 -- -- 100
2019-04-07 06:00:00 4.9 0 Calma 5 Este 0 -- -- 100
2019-04-07 05:00:00 5.3 4 Sudeste 6 Sudeste 0 -- -- 100
2019-04-07 04:00:00 5.6 3 Sudeste 4 Este 0 -- -- 99
2019-04-07 03:00:00 6.3 3 Este 6 Este 0 -- -- 99
2019-04-07 02:00:00 6.7 3 Sudeste 5 Sudeste 0 -- -- 98
2019-04-07 01:00:00 7.2 0 Calma 6 Sur 0.6 -- -- 97
2019-04-07 00:00:00 7.4 0 Calma 7 Sudeste 0 -- -- 96
2019-04-06 23:00:00 8.3 2 Este 12 Sudeste 0.2 -- -- 94
2019-04-06 22:00:00 8.6 5 Sudeste 8 Sudeste 0 -- -- 89
2019-04-06 21:00:00 10 4 Sudeste 19 Noroeste 0 -- -- 85
2019-04-06 20:00:00 10.6 12 Noroeste 28 Noroeste 0 -- -- 80
2019-04-06 19:00:00 12.1 19 Oeste 39 Noroeste 0 -- -- 68
2019-04-06 18:00:00 12.4 21 Oeste 43 Noroeste 0 -- -- 66
2019-04-06 17:00:00 13.3 27 Noroeste 41 Oeste 0 -- -- 62
2019-04-06 16:00:00 13.7 24 Noroeste 44 Oeste 0 -- -- 63
2019-04-06 15:00:00 12.8 29 Noroeste 46 Noroeste 0 -- -- 65
2019-04-06 14:00:00 9.7 16 Noroeste 43 Noroeste 0.4 -- -- 84
2019-04-06 13:00:00 9.2 18 Noroeste 47 Oeste 0.6 -- -- 85
2019-04-06 12:00:00 9.5 17 Noroeste 39 Oeste 1.6 -- -- 84
2019-04-06 11:00:00 9.1 19 Noroeste 35 Oeste 0.8 -- -- 85
2019-04-06 10:00:00 9 13 Noroeste 32 Noroeste 0.2 -- -- 87
2019-04-06 09:00:00 8.6 23 Noroeste 50 Noroeste 1.2 -- -- 87
2019-04-06 08:00:00 9.1 21 Oeste 50 Oeste 0.2 -- -- 90
2019-04-06 07:00:00 8.7 11 Oeste 36 Oeste 1 -- -- 90
2019-04-06 06:00:00 8.6 11 Oeste 37 Sudoeste 1.4 -- -- 86
2019-04-06 05:00:00 8.8 15 Sudoeste 43 Noroeste 0.2 -- -- 86
2019-04-06 04:00:00 8.7 15 Oeste 47 Oeste 0.2 -- -- 85
2019-04-06 03:00:00 8 17 Oeste 43 Oeste 3 -- -- 89
2019-04-06 02:00:00 7.4 3 Sur 24 Oeste 2.2 -- -- 95
2019-04-06 01:00:00 7.6 8 Oeste 40 Oeste 3.6 -- -- 93
2019-04-06 00:00:00 7.2 3 Sudeste 9 Oeste 0 -- -- 97
2019-04-05 23:00:00 7.3 3 Sur 46 Noroeste 3.2 -- -- 94
2019-04-05 22:00:00 9.7 5 Sudoeste 12 Sudoeste 0 -- -- 83
2019-04-05 21:00:00 10.1 9 Oeste 21 Oeste 0 -- -- 82
2019-04-05 20:00:00 11.7 13 Noroeste 20 Oeste 0.4 -- -- 74
2019-04-05 19:00:00 10.2 4 Oeste 14 Sur 0.8 -- -- 89
2019-04-05 18:00:00 8.7 5 Sudoeste 35 Noroeste 2.8 -- -- 91
2019-04-05 17:00:00 10.7 18 Oeste 37 Oeste 0 -- -- 76
2019-04-05 16:00:00 11.4 10 Oeste 37 Oeste 0.2 -- -- 75
2019-04-05 15:00:00 10.5 19 Oeste 39 Noroeste 0 -- -- 81
2019-04-05 14:00:00 10.3 14 Sur 22 Sur 0.6 -- -- 87
2019-04-05 13:00:00 7.8 10 Sudoeste 22 Sudoeste 5.2 -- -- 92
2019-04-05 12:00:00 7.5 9 Sur 28 Sur 1.2 -- -- 88
2019-04-05 11:00:00 8.5 14 Oeste 36 Oeste 0 -- -- 81
2019-04-05 10:00:00 7.7 9 Sur 26 Oeste 0.2 -- -- 81
2019-04-05 09:00:00 6.6 6 Sudeste 14 Sur 0 -- -- 89
2019-04-05 08:00:00 5.2 9 Sur 23 Sudeste 0 -- -- 99
2019-04-05 07:00:00 4.9 3 Este 12 Sudeste 0 -- -- 98
2019-04-05 06:00:00 5.2 5 Este 16 Sudeste 0.2 -- -- 98
2019-04-05 05:00:00 5.6 9 Sudeste 15 Sudeste 0.6 -- -- 98
2019-04-05 04:00:00 6.4 3 Este 9 Sudoeste 0.2 -- -- 96
2019-04-05 03:00:00 7.1 13 Oeste 27 Oeste 0.4 -- -- 89
2019-04-05 02:00:00 7.1 5 Sur 34 Oeste 0 -- -- 83
2019-04-05 01:00:00 8 21 Noroeste 37 Noroeste 0.4 -- -- 87
2019-04-05 00:00:00 7.4 3 Sudeste 8 Sudoeste 0 -- -- 97
2019-04-04 23:00:00 8.3 3 Sudoeste 15 Oeste 0.2 -- -- 96
2019-04-04 22:00:00 8.8 6 Oeste 15 Sudoeste 2 -- -- 98
2019-04-04 21:00:00 8.9 5 Sudoeste 12 Sudoeste 2 -- -- 100
2019-04-04 20:00:00 8.3 3 Este 9 Sudeste 5.8 -- -- 99
2019-04-04 19:00:00 8.4 3 Sudeste 32 Sur 11.6 -- -- 98
2019-04-04 18:00:00 9.5 15 Sur 42 Sur 4.8 -- -- 96
2019-04-04 17:00:00 9.3 19 Sur 34 Sur 2.4 -- -- 95
2019-04-04 16:00:00 9.6 16 Sur 36 Sur 2 -- -- 92
2019-04-04 15:00:00 10 13 Sur 33 Sudoeste 1 -- -- 93
2019-04-04 14:00:00 9.6 13 Sur 32 Sudoeste 1.8 -- -- 91
2019-04-04 13:00:00 9.9 10 Sudoeste 27 Sur 0.8 -- -- 91
2019-04-04 12:00:00 10.2 11 Sudoeste 29 Sur 0.2 -- -- 82
2019-04-04 11:00:00 9.5 8 Sur 19 Sur 0 -- -- 81
2019-04-04 10:00:00 7.4 3 Este 6 Sudeste 0 -- -- 88
2019-04-04 09:00:00 6 3 Este 9 Este 0 -- -- 90
2019-04-04 08:00:00 5.1 2 Este 8 Este 0 -- -- 92
2019-04-04 07:00:00 4.9 4 Este 6 Este 0 -- -- 89
2019-04-04 06:00:00 5.1 3 Este 8 Este 0 -- -- 89
2019-04-04 05:00:00 5.1 4 Sudeste 6 Sudeste 0 -- -- 91
2019-04-04 04:00:00 4.7 3 Este 6 Sudeste 0 -- -- 91
2019-04-04 03:00:00 4.9 2 Este 8 Sudeste 0 -- -- 89
2019-04-04 02:00:00 4.9 3 Sudeste 8 Sudeste 0 -- -- 88
2019-04-04 01:00:00 5.5 3 Este 8 Sur 0 -- -- 83
2019-04-04 00:00:00 6.9 0 Calma 6 Sudeste 0 -- -- 76
2019-04-03 23:00:00 8.3 2 Este 10 Noroeste 0 -- -- 71
2019-04-03 22:00:00 9.9 5 Norte 15 Noroeste 0 -- -- 61
2019-04-03 21:00:00 10.7 6 Norte 30 Noroeste 0 -- -- 60
2019-04-03 20:00:00 12.8 4 Norte 24 Noroeste 0 -- -- 57
2019-04-03 19:00:00 13.3 5 Norte 26 Norte 0 -- -- 55
2019-04-03 18:00:00 15.3 4 Norte 26 Noroeste 0 -- -- 44
2019-04-03 17:00:00 14 10 Norte 31 Noroeste 0 -- -- 47
2019-04-03 16:00:00 14.5 12 Norte 31 Noroeste 0 -- -- 45
2019-04-03 15:00:00 11.8 4 Nordeste 31 Noroeste 0.2 -- -- 65
2019-04-03 14:00:00 12.6 8 Norte 27 Norte 0.2 -- -- 66
2019-04-03 13:00:00 11.5 7 Norte 31 Noroeste 0 -- -- 72
2019-04-03 12:00:00 10 3 Norte 18 Norte 0.2 -- -- 79
2019-04-03 11:00:00 10.4 4 Norte 18 Noroeste 0 -- -- 73
2019-04-03 10:00:00 8.3 2 Oeste 5 Oeste 0 -- -- 82
2019-04-03 09:00:00 6.5 2 Sur 4 Sudeste 0 -- -- 88
2019-04-03 08:00:00 6.8 2 Sudeste 5 Sur 0 -- -- 88
2019-04-03 07:00:00 8 0 Calma 8 Noroeste 0 -- -- 83
2019-04-03 06:00:00 8.3 2 Sudeste 9 Noroeste 0 -- -- 86
2019-04-03 05:00:00 8.5 3 Noroeste 10 Noroeste 0 -- -- 85
2019-04-03 04:00:00 8.3 0 Calma 6 Noroeste 0 -- -- 82
2019-04-03 03:00:00 8.5 0 Calma 5 Norte 0 -- -- 79
2019-04-03 02:00:00 9 0 Calma 7 Nordeste 0 -- -- 77
2019-04-03 01:00:00 9.6 0 Calma 8 Este 0 -- -- 74
2019-04-03 00:00:00 10.9 0 Calma 12 Nordeste 0 -- -- 71
2019-04-02 23:00:00 11.2 2 Nordeste 13 Este 0 -- -- 71
2019-04-02 22:00:00 11.7 2 Este 15 Noroeste 0 -- -- 69
2019-04-02 21:00:00 13.4 7 Norte 22 Noroeste 0 -- -- 61
2019-04-02 20:00:00 16.2 5 Norte 27 Noroeste 0 -- -- 49
2019-04-02 19:00:00 17.3 11 Norte 31 Noroeste 0 -- -- 48
2019-04-02 18:00:00 17.2 9 Norte 27 Noroeste 0 -- -- 52
2019-04-02 17:00:00 19 14 Noroeste 25 Noroeste 0 -- -- 49
2019-04-02 16:00:00 18.8 10 Noroeste 19 Noroeste 0 -- -- 50
2019-04-02 15:00:00 17 6 Noroeste 13 Noroeste 0 -- -- 55
2019-04-02 14:00:00 17.2 3 Norte 11 Norte 0 -- -- 58
2019-04-02 13:00:00 17 3 Nordeste 10 Este 0 -- -- 59
2019-04-02 12:00:00 15.5 3 Nordeste 13 Nordeste 0 -- -- 67
2019-04-02 11:00:00 13.7 3 Norte 12 Norte 0 -- -- 73
2019-04-02 10:00:00 12.5 2 Nordeste 13 Norte 0 -- -- 77
2019-04-02 09:00:00 11.2 3 Este 13 Este 0 -- -- 80
2019-04-02 08:00:00 10.5 2 Nordeste 7 Nordeste 0 -- -- 88
2019-04-02 07:00:00 10.5 2 Nordeste 13 Norte 0 -- -- 86
2019-04-02 06:00:00 9.6 3 Norte 11 Nordeste 0 -- -- 92
2019-04-02 05:00:00 9.4 3 Este 8 Este 0 -- -- 93
2019-04-02 04:00:00 10.3 4 Sudeste 10 Este 0 -- -- 90
2019-04-02 03:00:00 11.2 3 Nordeste 13 Este 0 -- -- 88
2019-04-02 02:00:00 10.8 2 Sudeste 8 Este 0 -- -- 96
2019-04-02 01:00:00 11.2 2 Sudeste 5 Sudeste 0 -- -- 95
2019-04-02 00:00:00 12.1 3 Sur 5 Sur 0 -- -- 93
2019-04-01 23:00:00 13.1 2 Sudeste 4 Sur 0 -- -- 90
2019-04-01 22:00:00 14.6 2 Sur 6 Oeste 0 -- -- 85
2019-04-01 21:00:00 15.8 3 Oeste 23 Oeste 0 -- -- 82
2019-04-01 20:00:00 17.3 11 Sudoeste 26 Sudoeste 0 -- -- 71
2019-04-01 19:00:00 18.1 14 Oeste 27 Sudoeste 0 -- -- 60
2019-04-01 18:00:00 18.7 13 Sudoeste 31 Sudoeste 0 -- -- 56
2019-04-01 17:00:00 19.2 15 Oeste 29 Oeste 0 -- -- 51
2019-04-01 16:00:00 20.2 15 Oeste 27 Oeste 0 -- -- 45
2019-04-01 15:00:00 20.7 12 Oeste 22 Oeste 0 -- -- 41
2019-04-01 14:00:00 20.1 12 Noroeste 17 Noroeste 0 -- -- 47
2019-04-01 13:00:00 19.3 9 Noroeste 14 Noroeste 0 -- -- 50
2019-04-01 12:00:00 18.4 3 Noroeste 8 Sudeste 0 -- -- 57
2019-04-01 11:00:00 15.3 2 Este 5 Este 0 -- -- 67
2019-04-01 10:00:00 12.8 4 Sudeste 13 Sudeste 0 -- -- 74
2019-04-01 09:00:00 10.5 6 Este 13 Sudeste 0 -- -- 81
2019-04-01 08:00:00 10.1 4 Este 14 Este 0 -- -- 82
2019-04-01 07:00:00 9.6 6 Este 12 Sudeste 0 -- -- 83
2019-04-01 06:00:00 10 3 Sudeste 12 Sudeste 0 -- -- 80
2019-04-01 05:00:00 10.3 6 Sudeste 10 Sudeste 0 -- -- 76
2019-04-01 04:00:00 10.2 3 Sudeste 8 Sudeste 0 -- -- 75
2019-04-01 03:00:00 10.5 3 Sudeste 5 Sur 0 -- -- 75
2019-04-01 02:00:00 11.9 3 Sudeste 9 Sur 0 -- -- 70
2019-04-01 01:00:00 14 0 Calma 6 Norte 0 -- -- 61
2019-04-01 00:00:00 14.1 0 Calma 5 Noroeste 0 -- -- 62
2019-03-31 23:00:00 15.6 0 Calma 18 Sudeste 0 -- -- 55
2019-03-31 22:00:00 16.8 6 Sudeste 18 Sudeste 0 -- -- 50
2019-03-31 21:00:00 17.9 4 Este 16 Este 0 -- -- 49
2019-03-31 20:00:00 20.2 3 Este 10 Nordeste 0 -- -- 43
2019-03-31 19:00:00 22.6 2 Nordeste 23 Sudeste 0 -- -- 37
2019-03-31 18:00:00 21.7 8 Este 22 Este 0 -- -- 36
2019-03-31 17:00:00 21.1 8 Este 24 Sudeste 0 -- -- 35
2019-03-31 16:00:00 23.9 4 Norte 15 Norte 0 -- -- 33
2019-03-31 15:00:00 23.3 4 Norte 12 Norte 0 -- -- 38
2019-03-31 14:00:00 21.6 4 Norte 11 Noroeste 0 -- -- 46
2019-03-31 13:00:00 19.8 5 Norte 12 Noroeste 0 -- -- 49
2019-03-31 12:00:00 17.1 6 Oeste 9 Oeste 0 -- -- 55
2019-03-31 11:00:00 14.4 4 Oeste 7 Oeste 0 -- -- 61
2019-03-31 10:00:00 11.7 5 Oeste 9 Oeste 0 -- -- 69
2019-03-31 09:00:00 9.1 4 Sudoeste 8 Oeste 0 -- -- 85
2019-03-31 08:00:00 8.9 3 Oeste 7 Oeste 0 -- -- 89
2019-03-31 07:00:00 8.3 0 Calma 6 Oeste 0 -- -- 86
2019-03-31 06:00:00 9 3 Oeste 6 Oeste 0 -- -- 84
2019-03-31 05:00:00 9.1 0 Calma 8 Sudeste 0 -- -- 84
2019-03-31 03:00:00 9.3 4 Sudeste 5 Sudeste 0 -- -- 79
2019-03-31 01:00:00 10 0 Calma 5 Sudeste 0 -- -- 76
2019-03-31 00:00:00 10.7 0 Calma 3 Sudeste 0 -- -- 72
2019-03-30 23:00:00 11.7 0 Calma 4 Sudeste 0 -- -- 66
2019-03-30 22:00:00 12.8 3 Sur 5 Sudeste 0 -- -- 60
2019-03-30 21:00:00 14.3 0 Calma 8 Sur 0 -- -- 59
2019-03-30 20:00:00 17.2 2 Sur 5 Sur 0 -- -- 53
2019-03-30 19:00:00 19 2 Sur 17 Oeste 0 -- -- 46
2019-03-30 18:00:00 19.3 9 Sudoeste 19 Sudoeste 0 -- -- 42
2019-03-30 17:00:00 19.6 10 Sudoeste 23 Oeste 0 -- -- 48
2019-03-30 16:00:00 18.8 13 Sudoeste 25 Oeste 0 -- -- 56
2019-03-30 15:00:00 19.9 10 Oeste 20 Sudoeste 0 -- -- 41
2019-03-30 14:00:00 19.4 8 Noroeste 15 Noroeste 0 -- -- 51
2019-03-30 13:00:00 17.1 7 Noroeste 13 Noroeste 0 -- -- 62
2019-03-30 12:00:00 16 8 Noroeste 12 Noroeste 0 -- -- 60
2019-03-30 11:00:00 14.5 3 Norte 9 Noroeste 0 -- -- 64
2019-03-30 10:00:00 13.6 2 Nordeste 6 Sudeste 0 -- -- 64
2019-03-30 09:00:00 9 2 Sudeste 4 Sudeste 0 -- -- 79
2019-03-30 08:00:00 6.2 0 Calma 2 Sudeste 0 -- -- 91
2019-03-30 07:00:00 6.1 2 Sudeste 4 Sudeste 0 -- -- 90
2019-03-30 06:00:00 6.5 0 Calma 2 Este 0 -- -- 86
2019-03-30 05:00:00 6.7 0 Calma 4 Este 0 -- -- 86
2019-03-30 04:00:00 7.8 4 Sudeste 6 Sudeste 0 -- -- 83
2019-03-30 03:00:00 8 0 Calma 3 Sudeste 0 -- -- 83
2019-03-30 02:00:00 8.6 3 Este 4 Este 0 -- -- 86
2019-03-30 01:00:00 9.2 2 Este 5 Sudeste 0 -- -- 83
2019-03-30 00:00:00 9.8 3 Sudeste 4 Sudeste 0 -- -- 81
2019-03-29 23:00:00 10.6 2 Este 6 Sudeste 0 -- -- 77
2019-03-29 22:00:00 11.8 3 Sudeste 5 Sudeste 0 -- -- 73
2019-03-29 21:00:00 13.6 0 Calma 7 Sur 0 -- -- 65
2019-03-29 20:00:00 16.6 3 Oeste 9 Oeste 0 -- -- 54
2019-03-29 19:00:00 18.6 6 Sudoeste 14 Oeste 0 -- -- 44
2019-03-29 18:00:00 19.2 9 Oeste 22 Oeste 0 -- -- 37
2019-03-29 17:00:00 19.5 12 Oeste 30 Oeste 0 -- -- 41
2019-03-29 16:00:00 20.5 12 Oeste 29 Oeste 0 -- -- 37
2019-03-29 15:00:00 21.3 13 Oeste 26 Noroeste 0 -- -- 33
2019-03-29 14:00:00 21.7 13 Oeste 21 Noroeste 0 -- -- 32
2019-03-29 13:00:00 21.2 12 Noroeste 17 Noroeste 0 -- -- 35
2019-03-29 12:00:00 20.1 6 Noroeste 9 Noroeste 0 -- -- 45
2019-03-29 11:00:00 18.7 2 Sudeste 6 Sudeste 0 -- -- 48
2019-03-29 10:00:00 14.9 2 Este 7 Sudeste 0 -- -- 59
2019-03-29 09:00:00 11.1 2 Sudeste 4 Este 0 -- -- 72
2019-03-29 08:00:00 8.1 3 Sudeste 7 Sudeste 0 -- -- 83
2019-03-29 07:00:00 8.2 3 Este 9 Sudeste 0 -- -- 82
2019-03-29 06:00:00 8.9 5 Este 11 Este 0 -- -- 80
2019-03-29 05:00:00 8.8 5 Sudeste 12 Sudeste 0 -- -- 81
2019-03-29 04:00:00 8.5 4 Sudeste 7 Sudeste 0 -- -- 84
2019-03-29 03:00:00 9.7 2 Este 10 Sudeste 0 -- -- 79
2019-03-29 02:00:00 11 5 Sudeste 9 Sudeste 0 -- -- 73
2019-03-29 01:00:00 11.4 2 Sudeste 5 Sudeste 0 -- -- 73
2019-03-29 00:00:00 13.1 0 Calma 4 Sudoeste 0 -- -- 66
2019-03-28 23:00:00 14.3 2 Nordeste 8 Sur 0 -- -- 62
2019-03-28 22:00:00 15.8 2 Sudoeste 8 Este 0 -- -- 56
2019-03-28 21:00:00 17 4 Este 11 Este 0 -- -- 51
2019-03-28 20:00:00 19.4 3 Sudoeste 7 Sudoeste 0 -- -- 44
2019-03-28 19:00:00 21.9 3 Sur 17 Sudoeste 0 -- -- 38
2019-03-28 18:00:00 22.2 12 Sudoeste 22 Oeste 0 -- -- 36
2019-03-28 17:00:00 22.9 13 Oeste 23 Oeste 0 -- -- 35
2019-03-28 16:00:00 23.7 13 Oeste 21 Noroeste 0 -- -- 31
2019-03-28 15:00:00 23.8 9 Oeste 14 Noroeste 0 -- -- 31
2019-03-28 14:00:00 23.9 4 Norte 9 Nordeste 0 -- -- 32
2019-03-28 13:00:00 21.8 3 Nordeste 10 Noroeste 0 -- -- 38
2019-03-28 12:00:00 19 3 Norte 9 Sur 0 -- -- 45
2019-03-28 11:00:00 17.7 3 Este 12 Sudeste 0 -- -- 46
2019-03-28 10:00:00 14.6 3 Este 8 Sur 0 -- -- 56
2019-03-28 09:00:00 10.5 0 Calma 6 Sudoeste 0 -- -- 66
2019-03-28 08:00:00 8.5 3 Oeste 8 Este 0 -- -- 69
2019-03-28 07:00:00 7.7 5 Sudeste 9 Sudeste 0 -- -- 75
2019-03-28 06:00:00 7.6 4 Sudeste 10 Este 0 -- -- 77
2019-03-28 05:00:00 7.7 3 Sudeste 5 Sudeste 0 -- -- 78
2019-03-28 04:00:00 8.7 2 Este 6 Sudeste 0 -- -- 73
2019-03-28 03:00:00 10.3 3 Oeste 5 Sudoeste 0 -- -- 65
2019-03-28 02:00:00 10.5 3 Sudeste 6 Sudeste 0 -- -- 64
2019-03-28 01:00:00 11.6 0 Calma 5 Sudoeste 0 -- -- 62
2019-03-28 00:00:00 13.1 0 Calma 10 Este 0 -- -- 55
2019-03-27 23:00:00 14.5 0 Calma 9 Noroeste 0 -- -- 51
2019-03-27 22:00:00 16.4 3 Norte 8 Noroeste 0 -- -- 47
2019-03-27 21:00:00 18.3 2 Nordeste 20 Sudeste 0 -- -- 43
2019-03-27 20:00:00 20.7 3 Norte 11 Nordeste 0 -- -- 38
2019-03-27 19:00:00 23.4 2 Oeste 15 Oeste 0 -- -- 32
2019-03-27 18:00:00 22.6 10 Oeste 23 Oeste 0 -- -- 26
2019-03-27 17:00:00 23.8 15 Noroeste 21 Noroeste 0 -- -- 27
2019-03-27 16:00:00 25.4 6 Norte 20 Noroeste 0 -- -- 19
2019-03-27 15:00:00 23.6 13 Noroeste 18 Noroeste 0 -- -- 23
2019-03-27 14:00:00 23.6 5 Norte 16 Norte 0 -- -- 25
2019-03-27 13:00:00 22.6 3 Nordeste 11 Este 0 -- -- 28
2019-03-27 12:00:00 19 3 Norte 11 Sur 0 -- -- 36
2019-03-27 11:00:00 16.2 4 Noroeste 9 Noroeste 0 -- -- 43
2019-03-27 10:00:00 12.4 3 Norte 11 Norte 0 -- -- 51
2019-03-27 09:00:00 9.8 3 Nordeste 7 Noroeste 0 -- -- 59
2019-03-27 08:00:00 7.7 2 Noroeste 6 Noroeste 0 -- -- 62
2019-03-27 07:00:00 8.2 3 Norte 8 Noroeste 0 -- -- 63
2019-03-27 06:00:00 8.9 4 Oeste 9 Oeste 0 -- -- 62
2019-03-27 05:00:00 9.8 4 Este 11 Sudeste 0 -- -- 55
2019-03-27 04:00:00 9.6 2 Sudeste 14 Sudeste 0 -- -- 56
2019-03-27 03:00:00 10.6 6 Este 21 Sudeste 0 -- -- 53
2019-03-27 02:00:00 9.8 2 Este 12 Sudeste 0 -- -- 64
2019-03-27 01:00:00 11.5 2 Oeste 7 Sudoeste 0 -- -- 60
2019-03-27 00:00:00 12.5 4 Nordeste 15 Norte 0 -- -- 59
2019-03-26 23:00:00 13.8 2 Nordeste 18 Este 0 -- -- 54
2019-03-26 22:00:00 15.3 3 Este 19 Sudeste 0 -- -- 48
2019-03-26 21:00:00 17.5 5 Este 16 Este 0 -- -- 43
2019-03-26 20:00:00 18.9 2 Este 21 Este 0 -- -- 44
2019-03-26 19:00:00 21.3 4 Nordeste 22 Este 0 -- -- 40
2019-03-26 18:00:00 22.8 7 Nordeste 23 Nordeste 0 -- -- 33
2019-03-26 17:00:00 24.2 4 Nordeste 19 Nordeste 0 -- -- 31
2019-03-26 16:00:00 24.4 5 Nordeste 17 Nordeste 0 -- -- 29
2019-03-26 15:00:00 24.1 4 Nordeste 18 Este 0 -- -- 25
2019-03-26 14:00:00 22.7 4 Nordeste 16 Nordeste 0 -- -- 34
2019-03-26 13:00:00 19.9 5 Nordeste 17 Nordeste 0 -- -- 39
2019-03-26 12:00:00 18 6 Nordeste 19 Nordeste 0 -- -- 43
2019-03-26 11:00:00 15.8 5 Nordeste 19 Norte 0 -- -- 48
2019-03-26 10:00:00 14 3 Nordeste 14 Norte 0 -- -- 52
2019-03-26 09:00:00 10.1 4 Norte 13 Norte 0 -- -- 63
2019-03-26 08:00:00 8.9 3 Nordeste 10 Este 0 -- -- 67
2019-03-26 07:00:00 9 3 Nordeste 17 Este 0 -- -- 66
2019-03-26 06:00:00 9.6 2 Este 13 Este 0 -- -- 66
2019-03-26 05:00:00 10.8 4 Nordeste 12 Nordeste 0 -- -- 60
2019-03-26 04:00:00 10.4 2 Este 8 Nordeste 0 -- -- 63
2019-03-26 03:00:00 11.3 3 Este 17 Nordeste 0 -- -- 61
2019-03-26 02:00:00 12.3 3 Nordeste 18 Sudeste 0 -- -- 60
2019-03-26 01:00:00 13 3 Nordeste 25 Este 0 -- -- 62
2019-03-26 00:00:00 12.8 3 Este 9 Norte 0 -- -- 63
2019-03-25 23:00:00 13.3 2 Norte 9 Norte 0 -- -- 61
2019-03-25 22:00:00 14.4 4 Nordeste 18 Este 0 -- -- 60
2019-03-25 21:00:00 15.2 4 Nordeste 18 Sur 0 -- -- 60
2019-03-25 20:00:00 16.7 2 Este 15 Este 0 -- -- 58
2019-03-25 19:00:00 19.7 5 Nordeste 22 Este 0 -- -- 50
2019-03-25 18:00:00 21.9 4 Nordeste 17 Nordeste 0 -- -- 43
2019-03-25 17:00:00 22.9 4 Nordeste 19 Norte 0 -- -- 39
2019-03-25 16:00:00 23.5 4 Nordeste 16 Norte 0 -- -- 37
2019-03-25 15:00:00 23.4 5 Nordeste 14 Este 0 -- -- 41
2019-03-25 14:00:00 22.8 4 Nordeste 12 Oeste 0 -- -- 46
2019-03-25 13:00:00 21 4 Nordeste 16 Norte 0 -- -- 51
2019-03-25 12:00:00 19.1 4 Norte 11 Norte 0 -- -- 54
2019-03-25 11:00:00 16.5 3 Norte 8 Norte 0 -- -- 61
2019-03-25 10:00:00 14.1 0 Calma 5 Norte 0 -- -- 67
2019-03-25 09:00:00 10.8 0 Calma 5 Sur 0 -- -- 77
2019-03-25 08:00:00 9.1 0 Calma 4 Este 0 -- -- 81
2019-03-25 07:00:00 9.4 0 Calma 6 Sudeste 0 -- -- 77
2019-03-25 06:00:00 9.9 0 Calma 5 Noroeste 0 -- -- 74
2019-03-25 05:00:00 11 0 Calma 4 Norte 0 -- -- 69
2019-03-25 04:00:00 11.6 0 Calma 10 Este 0 -- -- 65
2019-03-25 03:00:00 12.6 3 Norte 11 Norte 0 -- -- 60
2019-03-25 02:00:00 13.1 2 Nordeste 9 Noroeste 0 -- -- 58
2019-03-25 01:00:00 13.5 0 Calma 12 Norte 0 -- -- 56
2019-03-25 00:00:00 14.2 0 Calma 17 Nordeste 0 -- -- 55